AirNav   ProFlight Series 2 Aviation Headset
 
 426 users online  

MY62 Ultraflyte, Inc Ultralight Flightpark
Jenkins, Minnesota, USA

GOING TO JENKINS?


FAA INFORMATION EFFECTIVE 16 JULY 2020

Location

FAA Identifier: MY62
Lat/Long: 46-39-54.8640N 094-20-35.9800W
46-39.914400N 094-20.599667W
46.6652400,-94.3433278
(estimated)
Elevation: 1270 ft. / 387 m (estimated)
Variation: 04E (1985)
From city: 2 miles N of JENKINS, MN
Time zone: UTC -5 (UTC -6 during Standard Time)
Zip code: 56456

Ultralight Flight Park Operations

Ultralight Flight Park use: Private use. Permission required prior to landing
Activation date: 07/1984
Control tower: no
ARTCC: MINNEAPOLIS CENTER
FSS: PRINCETON FLIGHT SERVICE STATION
Attendance: 0800-2000
Wind indicator: yes
Segmented circle: no

Ultralight Flight Park Communications

WX AWOS-3 at PWC (4 nm NW): 118.525 (218-587-3420)
WX ASOS at BRD (18 nm SE): 126.775 (218-828-3314)

Nearby radio navigation aids

VOR radial/distance  VOR name  Freq  Var
PKDr111/33.0PARK RAPIDS VOR/DME110.6004E

 
NDB name  Hdg/Dist  Freq  Var  ID
PINE RIVER152/4.133003EPWC .--. .-- -.-.
LONGVILLE193/20.539203EXVG -..- ...- --.
STAPLES047/25.525701ESAZ ... .- --..
AITKIN284/28.439700EAIT .- .. -
RIPLEY357/35.240403EXCR -..- -.-. .-.

Ultralight Flight Park Services

Runway Information

Runway NE/SW

Dimensions: 1400 x 50 ft. / 427 x 15 m
Surface: turf
RUNWAY NE  RUNWAY SW
Traffic pattern: leftleft

Ultralight Flight Park Ownership and Management from official FAA records

Ownership: Privately-owned
PRES ULTRAFLYTE INC.
Owner: WILLIAM H DAMMANN, JR
RTE 1 BOX 550
PINE RIVER, MN 56474
Phone 218-568-4295
Manager: W H DAMMANN, JR
RTE 1 BOX 550
PINE RIVER, MN 56474
Phone 218-568-4295

Ultralight Flight Park Operational Statistics

Aircraft based on the field: 6
Ultralights: 6
    

Additional Remarks

40'PLINE MKD WITH ORANGE BALLS 150'FM S END OF N/S RWY.
FOR CD CTC MINNEAPOLIS ARTCC AT 651-463-5588.

Instrument Procedures

There are no published instrument procedures at MY62.

Some nearby airports with instrument procedures:

KPWC - Pine River Regional Airport (4 nm NW)
KBRD - Brainerd Lakes Regional Airport (18 nm SE)
KXVG - Longville Municipal Airport (20 nm N)
KSAZ - Staples Municipal Airport (26 nm SW)
KAIT - Aitkin Municipal Airport-Steve Kurtz Field (28 nm E)
 
Loc | Ops | Rwys | IFR | FBO | Links
Com | Nav | Svcs | Stats | Notes
Area around MY62 (Ultraflyte, Inc Ultralight Flightpark)
 
Road maps at: MapQuest Bing Google
 
Aerial photo
No photo
 
Sectional chart

 
Airport distance calculator
Flying to Ultraflyte, Inc Ultralight Flightpark? Find the distance to fly.

From to MY62

Sunrise and sunset
Times for 10-Aug-2020
 Local
(UTC-5)
 Zulu
(UTC)
Morning civil twilight05:3810:38
Sunrise06:1111:11
Sunset20:3401:34
Evening civil twilight21:0702:07

Current date and time
Zulu (UTC)  10-Aug-2020 09:58:20
Local (UTC-5)  10-Aug-2020 04:58:20
 
METAR
KPWC 
3nm N 
100955Z AUTO 00000KT 1 1/2SM BR VV007 12/11 A2995 RMK AO2
KBRD 
18nm SE 
100953Z AUTO 32004KT 10SM CLR 18/15 A2991 RMK AO2 SLP124 T01830150
KXVG 
20nm N 
100837Z AUTO 00000KT 10SM CLR 15/14 A2990 RMK AO2 LTG DSNT SE
TAF
KBRD 
18nm SE 
100540Z 1006/1106 31005KT P6SM SCT025 BKN050 TEMPO 1006/1007 6SM -TSRA BKN025CB FM100900 31006KT P6SM FEW050 FM101700 28014G22KT P6SM FEW060 FM110100 23004KT P6SM SKC
NOTAMs
Click for the latest NOTAMs
NOTAMs are issued by the DoD/FAA and will open in a separate window not controlled by AirNav.

 

 
 

Would you like to see your business listed on this page?

 If your business provides an interesting product or service to pilots, flight crews, aircraft, or users of the Ultraflyte, Inc Ultralight Flightpark, you should consider listing it here.  To start the listing process, click on the button below
 
Add a business
 

Other Pages about Ultraflyte, Inc Ultralight Flightpark

Update a link
 
Copyright © AirNav, LLC. All rights reserved. Privacy Policy  Contact